Time;durP1;ratioP1;P1;durP2;ratioP2;P2;SDS_P1;SDS_P2;PMS_P1;PMS_P2;Temp;Humidity;BMP_temperature;BMP_pressure;BME280_temperature;BME280_humidity;BME280_pressure;Samples;Min_cycle;Max_cycle;Signal;HPM_P1;HPM_P2
2022/09/01 00:02:14;;;;;;;0.00;0.00;;;;;;;18.46;56.30;102277.78;5023414;28;20079;-74
2022/09/01 00:04:43;;;;;;;0.10;0.10;;;;;;;18.45;56.34;102282.25;5028539;28;20104;-75
2022/09/01 00:07:11;;;;;;;0.10;0.10;;;;;;;18.45;57.18;102281.38;5026810;28;20040;-75
2022/09/01 00:09:38;;;;;;;0.00;0.00;;;;;;;18.42;56.33;102272.50;5026601;28;20025;-76
2022/09/01 00:12:06;;;;;;;0.10;0.10;;;;;;;18.39;55.61;102275.28;5027050;28;20033;-76
2022/09/01 00:14:37;;;;;;;0.03;0.03;;;;;;;18.36;56.83;102267.31;5025267;28;20040;-75
2022/09/01 00:17:07;;;;;;;1.20;1.10;;;;;;;18.35;56.79;102267.38;5024406;28;20074;-75
2022/09/01 00:19:35;;;;;;;0.00;0.00;;;;;;;18.30;57.77;102259.44;5028148;28;20157;-75
2022/09/01 00:22:02;;;;;;;0.00;0.00;;;;;;;18.27;57.08;102260.41;5021215;28;20041;-74
2022/09/01 00:24:29;;;;;;;0.10;0.10;;;;;;;18.26;56.49;102260.47;5020140;28;20045;-77
2022/09/01 00:27:15;;;;;;;0.10;0.10;;;;;;;18.23;57.39;102257.88;5023736;28;20526;-75
2022/09/01 00:29:41;;;;;;;0.10;0.10;;;;;;;18.21;57.27;102259.72;5022638;28;20144;-74
2022/09/01 00:32:10;;;;;;;0.00;0.00;;;;;;;18.22;57.38;102266.88;5023380;28;20439;-76
2022/09/01 00:34:37;;;;;;;0.00;0.00;;;;;;;18.17;56.20;102256.25;5026313;28;20029;-75
2022/09/01 00:37:03;;;;;;;0.10;0.10;;;;;;;18.15;57.35;102260.78;5028437;28;20494;-75
2022/09/01 00:39:32;;;;;;;0.10;0.10;;;;;;;18.13;57.69;102262.66;5023004;28;20064;-76
2022/09/01 00:41:58;;;;;;;0.00;0.00;;;;;;;18.11;57.33;102254.63;5025807;28;20064;-76
2022/09/01 00:44:40;;;;;;;0.10;0.10;;;;;;;18.11;57.08;102251.06;5023994;28;20044;-75
2022/09/01 00:47:06;;;;;;;0.00;0.00;;;;;;;18.08;57.66;102254.72;5023755;28;20057;-76
2022/09/01 00:49:48;;;;;;;0.05;0.05;;;;;;;18.08;57.49;102251.16;5023283;28;20107;-76
2022/09/01 00:52:42;;;;;;;0.00;0.00;;;;;;;18.08;57.94;102252.03;5025879;28;20156;-76
2022/09/01 00:55:14;;;;;;;0.10;0.10;;;;;;;18.03;57.47;102242.38;5028681;28;20773;-75
2022/09/01 00:57:42;;;;;;;0.00;0.00;;;;;;;17.99;57.58;102241.56;5024088;28;20065;-76
2022/09/01 01:00:14;;;;;;;0.00;0.00;;;;;;;17.99;57.11;102241.56;5021592;28;20591;-74
2022/09/01 01:02:41;;;;;;;;;;;;;;;18.09;57.50;102237.72;5022946;28;20044;-76
2022/09/01 01:05:08;;;;;;;0.10;0.10;;;;;;;17.95;57.58;102245.28;5024096;28;19925;-76
2022/09/01 01:07:37;;;;;;;0.05;0.05;;;;;;;17.93;56.99;102241.72;5023291;28;20025;-76
2022/09/01 01:10:54;;;;;;;0.10;0.10;;;;;;;18.02;57.60;102245.97;5028419;28;20670;-76
2022/09/01 01:14:11;;;;;;;0.10;0.10;;;;;;;17.95;58.47;102245.28;5020486;28;20057;-76
2022/09/01 01:27:44;;;;;;;0.00;0.00;;;;;;;17.74;58.52;102238.69;5024168;28;20099;-75
2022/09/01 01:30:12;;;;;;;0.00;0.00;;;;;;;17.71;57.56;102236.97;5024499;28;20038;-75
2022/09/01 01:32:41;;;;;;;0.00;0.00;;;;;;;17.71;58.19;102238.78;5028549;28;20087;-76
2022/09/01 01:35:13;;;;;;;0.00;0.00;;;;;;;17.68;58.17;102242.41;5024216;28;20037;-75
2022/09/01 01:37:44;;;;;;;0.10;0.10;;;;;;;17.68;58.61;102236.16;5029049;28;20067;-76
2022/09/01 01:40:14;;;;;;;0.10;0.10;;;;;;;17.67;58.81;102240.66;5028066;28;20033;-75
2022/09/01 01:42:44;;;;;;;0.00;0.00;;;;;;;17.68;58.90;102242.41;5026315;28;20048;-76
2022/09/01 01:45:15;;;;;;;0.10;0.10;;;;;;;17.65;58.23;102231.78;5026777;28;20037;-76
2022/09/01 01:47:50;;;;;;;0.00;0.00;;;;;;;17.64;58.88;102224.66;5024374;28;20464;-76
2022/09/01 01:50:16;;;;;;;0.10;0.10;;;;;;;17.64;58.80;102235.38;5028204;28;20116;-76
2022/09/01 01:52:42;;;;;;;0.00;0.00;;;;;;;17.62;59.24;102229.19;5026217;28;20033;-76
2022/09/01 01:55:11;;;;;;;0.00;0.00;;;;;;;17.63;58.97;102233.59;5027786;28;20079;-76
2022/09/01 01:57:39;;;;;;;0.60;0.60;;;;;;;17.61;59.47;102238.16;5029061;28;20037;-75
2022/09/01 02:00:06;;;;;;;0.28;0.20;;;;;;;17.57;60.33;102242.72;5025793;28;20095;-74
2022/09/01 02:02:32;;;;;;;0.10;0.10;;;;;;;17.61;59.68;102240.81;5027158;28;20071;-76
2022/09/01 02:04:59;;;;;;;0.10;0.10;;;;;;;17.60;59.16;102244.44;5025519;28;20125;-76
2022/09/01 02:07:42;;;;;;;0.00;0.00;;;;;;;17.63;59.04;102238.97;5025324;28;20124;-75
2022/09/01 02:10:30;;;;;;;0.10;0.10;;;;;;;17.65;59.35;102236.28;5002881;28;20045;-76
2022/09/01 02:13:02;;;;;;;0.00;0.00;;;;;;;17.58;59.72;102246.25;5023831;28;20033;-76
2022/09/01 02:15:29;;;;;;;0.03;0.03;;;;;;;17.60;59.45;102244.44;5027447;28;20033;-76
2022/09/01 02:17:59;;;;;;;0.10;0.10;;;;;;;17.59;58.75;102237.31;5026424;28;20642;-76
2022/09/01 02:20:28;;;;;;;0.08;0.08;;;;;;;17.56;58.93;102232.91;5023810;28;20072;-76
2022/09/01 02:22:55;;;;;;;0.00;0.00;;;;;;;17.57;59.41;102239.13;5028495;28;20037;-77
2022/09/01 02:25:22;;;;;;;0.10;0.10;;;;;;;17.57;59.14;102240.03;5026005;28;20517;-77
2022/09/01 02:27:52;;;;;;;0.00;0.00;;;;;;;17.55;59.58;102232.97;5020259;28;20061;-76
2022/09/01 02:30:18;;;;;;;0.00;0.00;;;;;;;17.54;59.54;102237.41;5019901;28;20034;-76
2022/09/01 02:32:44;;;;;;;0.10;0.10;;;;;;;17.54;59.61;102233.88;5024064;28;20037;-76
2022/09/01 02:35:12;;;;;;;0.00;0.00;;;;;;;17.52;59.60;102238.38;5024829;28;20503;-77
2022/09/01 02:37:40;;;;;;;0.08;0.08;;;;;;;17.53;59.16;102232.09;5021219;28;20442;-76
2022/09/01 02:40:09;;;;;;;0.10;0.10;;;;;;;17.51;59.03;102229.47;5022400;28;20090;-76
2022/09/01 02:42:39;;;;;;;0.10;0.10;;;;;;;17.49;59.90;102227.75;5017820;28;20437;-76
2022/09/01 02:45:10;;;;;;;0.10;0.10;;;;;;;17.46;59.08;102221.56;5022958;28;20056;-76
2022/09/01 02:47:43;;;;;;;0.08;0.08;;;;;;;17.44;59.45;102218.03;5030102;28;20032;-76
2022/09/01 02:50:12;;;;;;;;;;;;;;;17.57;58.80;102217.69;5038089;28;20029;-76
2022/09/01 02:52:39;;;;;;;0.00;0.00;;;;;;;17.41;59.68;102222.63;5035689;28;19917;-76
2022/09/01 02:55:07;;;;;;;0.10;0.10;;;;;;;17.39;59.58;102211.06;5031981;28;20113;-76
2022/09/01 02:57:33;;;;;;;0.10;0.10;;;;;;;17.37;59.25;102216.47;5030099;28;20025;-77
2022/09/01 03:00:00;;;;;;;0.10;0.10;;;;;;;17.36;60.04;102213.78;5034187;28;20029;-77
2022/09/01 03:02:27;;;;;;;0.10;0.10;;;;;;;17.35;59.70;102210.25;5021630;28;20041;-75
2022/09/01 03:04:54;;;;;;;0.10;0.10;;;;;;;17.35;59.92;102212.94;5034288;28;20569;-77
2022/09/01 03:07:22;;;;;;;0.00;0.00;;;;;;;17.38;60.34;102211.97;5030664;28;20419;-76
2022/09/01 03:09:49;;;;;;;0.10;0.10;;;;;;;17.38;60.09;102212.81;5032170;28;20033;-76
2022/09/01 03:12:15;;;;;;;0.00;0.00;;;;;;;17.40;59.51;102205.66;5029330;28;20548;-76
2022/09/01 03:14:41;;;;;;;0.10;0.10;;;;;;;17.41;59.50;102207.41;5033001;28;20068;-77
2022/09/01 03:17:07;;;;;;;0.10;0.10;;;;;;;17.41;59.90;102207.41;5031916;28;20123;-76
2022/09/01 03:19:39;;;;;;;0.00;0.00;;;;;;;17.43;59.78;102213.63;5031398;28;20041;-76
2022/09/01 03:22:05;;;;;;;0.10;0.10;;;;;;;17.45;59.99;102209.06;5028391;28;20037;-75
2022/09/01 03:24:31;;;;;;;0.00;0.00;;;;;;;17.48;60.03;102207.25;5032357;28;20116;-76
2022/09/01 03:26:57;;;;;;;0.10;0.10;;;;;;;17.48;59.65;102208.09;5031288;28;20029;-76
2022/09/01 03:29:24;;;;;;;0.00;0.00;;;;;;;17.50;59.43;102208.94;5032474;28;20079;-76
2022/09/01 03:31:50;;;;;;;0.10;0.10;;;;;;;17.50;59.62;102208.09;5030439;28;20029;-76
2022/09/01 03:34:20;;;;;;;0.10;0.10;;;;;;;17.50;59.34;102205.41;5029304;28;20037;-76
2022/09/01 03:36:49;;;;;;;0.10;0.10;;;;;;;17.46;59.45;102212.66;5031168;28;20030;-76
2022/09/01 03:39:18;;;;;;;0.00;0.00;;;;;;;17.45;59.13;102209.06;5028537;28;20029;-76
2022/09/01 03:41:44;;;;;;;0.10;0.10;;;;;;;17.42;60.06;102214.53;5029463;28;20090;-76
2022/09/01 03:44:15;;;;;;;0.08;0.08;;;;;;;17.42;59.03;102209.16;5032292;28;20029;-76
2022/09/01 03:46:42;;;;;;;0.00;0.00;;;;;;;17.40;59.29;102202.97;5029296;28;20079;-76
2022/09/01 03:49:14;;;;;;;0.10;0.10;;;;;;;17.39;59.19;102197.66;5030119;28;20029;-75
2022/09/01 03:51:43;;;;;;;0.10;0.10;;;;;;;17.37;59.28;102204.84;5029133;28;20135;-76
2022/09/01 03:54:09;;;;;;;0.38;0.38;;;;;;;17.33;59.26;102198.69;5029645;28;20029;-76
2022/09/01 03:56:39;;;;;;;0.10;0.10;;;;;;;17.29;58.70;102203.25;5027922;28;20439;-76
2022/09/01 03:59:06;;;;;;;0.00;0.00;;;;;;;17.26;58.94;102199.78;5028148;28;20404;-74
2022/09/01 04:01:36;;;;;;;0.10;0.10;;;;;;;17.24;58.71;102196.25;5027840;28;20398;-76
2022/09/01 04:04:05;;;;;;;0.05;0.05;;;;;;;17.21;59.39;102199.91;5025229;28;20483;-75
2022/09/01 04:06:31;;;;;;;0.10;0.10;;;;;;;17.20;59.00;102199.94;5029559;28;20025;-75
2022/09/01 04:09:01;;;;;;;0.00;0.00;;;;;;;17.19;59.42;102195.50;5030023;28;20049;-76
2022/09/01 04:11:27;;;;;;;0.10;0.10;;;;;;;17.19;58.63;102203.53;5030086;28;20448;-76
2022/09/01 04:13:54;;;;;;;0.10;0.10;;;;;;;17.16;58.91;102191.13;5028149;28;20033;-76
2022/09/01 04:19:18;;;;;;;0.08;0.08;;;;;;;17.18;59.76;102196.41;5028283;28;20117;-76
2022/09/01 04:21:46;;;;;;;0.10;0.10;;;;;;;17.21;59.12;102193.66;5030572;28;20052;-76
2022/09/01 04:24:14;;;;;;;0.10;0.10;;;;;;;17.22;58.46;102192.72;5029013;28;20561;-76
2022/09/01 04:26:41;;;;;;;0.20;0.20;;;;;;;17.23;59.31;102197.19;5027718;28;20083;-76
2022/09/01 04:29:08;;;;;;;0.10;0.10;;;;;;;17.25;59.23;102195.34;5032274;28;20485;-76
2022/09/01 04:31:37;;;;;;;0.10;0.10;;;;;;;17.26;58.84;102194.44;5028685;28;20079;-76
2022/09/01 04:34:21;;;;;;;0.10;0.10;;;;;;;17.26;58.97;102197.97;5030465;28;20033;-76
2022/09/01 04:36:49;;;;;;;0.10;0.10;;;;;;;17.25;59.31;102196.22;5029382;28;20037;-76
2022/09/01 04:39:15;;;;;;;0.10;0.10;;;;;;;17.26;58.85;102199.78;5028489;28;20060;-75
2022/09/01 04:41:44;;;;;;;0.82;0.47;;;;;;;17.26;58.52;102191.75;5026458;28;20540;-75
2022/09/01 04:44:14;;;;;;;0.00;0.00;;;;;;;17.26;58.54;102197.97;5029067;28;20047;-75
2022/09/01 04:46:45;;;;;;;0.00;0.00;;;;;;;17.23;58.82;102195.38;5027425;28;20059;-76
2022/09/01 04:49:15;;;;;;;0.10;0.10;;;;;;;17.22;58.60;102195.41;5023627;28;20068;-75
2022/09/01 04:51:43;;;;;;;0.10;0.10;;;;;;;17.22;58.65;102198.09;5027980;28;20044;-74
2022/09/01 04:54:13;;;;;;;0.00;0.00;;;;;;;17.22;58.73;102195.41;5023598;28;20475;-76
2022/09/01 04:56:40;;;;;;;0.10;0.10;;;;;;;17.22;59.18;102195.41;5027675;28;20033;-76
2022/09/01 04:59:09;;;;;;;0.10;0.10;;;;;;;17.22;58.90;102203.44;5027155;28;20076;-75
2022/09/01 05:01:44;;;;;;;0.10;0.10;;;;;;;17.22;58.78;102196.31;5023357;28;20089;-75
2022/09/01 05:04:13;;;;;;;0.00;0.00;;;;;;;17.23;58.43;102197.19;5028675;28;20592;-76
2022/09/01 05:06:41;;;;;;;0.00;0.00;;;;;;;17.22;58.82;102196.31;5026900;28;20103;-76
2022/09/01 05:09:10;;;;;;;0.20;0.20;;;;;;;17.21;58.81;102193.66;5028715;28;20036;-76
2022/09/01 05:11:38;;;;;;;0.40;0.40;;;;;;;17.20;58.77;102202.63;5022650;28;20117;-76
2022/09/01 05:14:05;;;;;;;0.00;0.00;;;;;;;17.18;58.93;102196.41;5029001;28;20056;-76
2022/09/01 05:16:34;;;;;;;0.10;0.10;;;;;;;17.17;59.17;102198.25;5026198;28;20032;-75
2022/09/01 05:19:01;;;;;;;0.10;0.10;;;;;;;17.14;58.79;102199.16;5026577;28;20033;-75
2022/09/01 05:21:28;;;;;;;0.10;0.10;;;;;;;17.14;59.35;102193.81;5026996;28;20083;-75
2022/09/01 05:23:59;;;;;;;0.00;0.00;;;;;;;17.17;59.30;102200.00;5031059;28;20029;-75
2022/09/01 05:26:30;;;;;;;0.05;0.05;;;;;;;17.18;58.76;102199.09;5029976;28;20116;-76
2022/09/01 05:29:00;;;;;;;0.10;0.10;;;;;;;17.19;58.41;102199.06;5025248;28;20518;-76
2022/09/01 05:31:32;;;;;;;0.10;0.10;;;;;;;17.18;58.75;102204.47;5027567;28;20391;-76
2022/09/01 05:34:00;;;;;;;0.10;0.10;;;;;;;17.17;58.56;102191.97;5023629;28;20041;-75
2022/09/01 05:36:32;;;;;;;0.10;0.10;;;;;;;17.16;58.65;102195.56;5029544;28;20028;-76
2022/09/01 05:38:59;;;;;;;0.20;0.20;;;;;;;17.17;59.26;102194.66;5026555;28;20022;-75
2022/09/01 05:41:26;;;;;;;0.00;0.00;;;;;;;17.17;59.08;102198.25;5027764;28;20075;-75
2022/09/01 05:43:53;;;;;;;0.10;0.10;;;;;;;17.19;58.92;102200.88;5021483;28;20041;-76
2022/09/01 05:46:22;;;;;;;0.10;0.10;;;;;;;17.22;58.97;102199.00;5025807;28;20037;-76
2022/09/01 05:48:51;;;;;;;0.10;0.10;;;;;;;17.25;59.19;102206.94;5028232;28;20550;-76
2022/09/01 05:51:22;;;;;;;0.00;0.00;;;;;;;17.30;59.44;102198.78;5023576;28;20029;-75
2022/09/01 05:53:50;;;;;;;0.00;0.00;;;;;;;17.33;58.99;102201.38;5027149;28;20054;-75
2022/09/01 05:56:18;;;;;;;0.00;0.00;;;;;;;17.34;58.79;102200.44;5025679;28;20049;-75
2022/09/01 05:58:47;;;;;;;0.05;0.05;;;;;;;17.36;58.68;102212.00;5029110;28;20021;-75
2022/09/01 06:01:21;;;;;;;0.00;0.00;;;;;;;17.38;58.33;102196.75;5029095;28;20045;-76
2022/09/01 06:03:49;;;;;;;0.00;0.00;;;;;;;17.38;58.63;102212.81;5028497;28;20503;-75
2022/09/01 06:06:16;;;;;;;0.10;0.10;;;;;;;17.39;58.52;102201.19;5029955;28;20041;-76
2022/09/01 06:08:44;;;;;;;0.10;0.10;;;;;;;17.41;58.36;102207.41;5033472;28;20093;-77
2022/09/01 06:11:13;;;;;;;0.10;0.10;;;;;;;17.42;57.98;102206.50;5036975;28;20741;-76
2022/09/01 06:13:40;;;;;;;0.00;0.00;;;;;;;17.42;58.14;102202.91;5036537;28;20105;-77
2022/09/01 06:16:08;;;;;;;0.10;0.10;;;;;;;17.42;57.83;102203.81;5036954;28;20418;-77
2022/09/01 06:18:35;;;;;;;0.10;0.10;;;;;;;17.43;57.95;102205.56;5036440;28;20238;-78
2022/09/01 06:21:04;;;;;;;0.00;0.00;;;;;;;17.45;57.95;102203.72;5034129;28;20032;-78
2022/09/01 06:23:30;;;;;;;0.00;0.00;;;;;;;17.46;57.71;102199.25;5033031;28;20033;-78
2022/09/01 06:25:58;;;;;;;0.10;0.10;;;;;;;17.47;58.12;102201.00;5034326;28;20418;-78
2022/09/01 06:28:25;;;;;;;0.52;0.52;;;;;;;17.51;58.07;102201.78;5026160;28;20554;-78
2022/09/01 06:30:52;;;;;;;0.00;0.00;;;;;;;17.54;57.78;102199.03;5031406;28;20034;-77
2022/09/01 06:33:19;;;;;;;0.73;0.73;;;;;;;17.57;57.61;102198.94;5033879;28;20029;-78
2022/09/01 06:35:46;;;;;;;0.10;0.10;;;;;;;17.62;57.84;102202.41;5033831;28;20092;-78
2022/09/01 06:38:16;;;;;;;0.10;0.10;;;;;;;17.66;57.64;102201.38;5034935;28;20028;-78
2022/09/01 06:40:42;;;;;;;0.05;0.05;;;;;;;17.71;57.91;102203.94;5034202;28;20017;-78
2022/09/01 06:43:11;;;;;;;0.03;0.03;;;;;;;17.76;57.67;102208.22;5032529;28;20065;-77
2022/09/01 06:45:43;;;;;;;0.10;0.10;;;;;;;17.86;57.44;102211.53;5033182;28;20029;-78
2022/09/01 06:48:14;;;;;;;0.10;0.10;;;;;;;17.90;57.47;102205.13;5025993;28;20025;-77
2022/09/01 06:50:41;;;;;;;0.10;0.10;;;;;;;17.97;57.80;102211.25;5033254;28;20052;-78
2022/09/01 06:53:09;;;;;;;0.00;0.00;;;;;;;17.99;57.56;102209.38;5027531;28;20248;-78
2022/09/01 06:55:37;;;;;;;0.10;0.10;;;;;;;18.07;57.19;102207.38;5033947;28;20021;-78
2022/09/01 06:58:06;;;;;;;0.10;0.10;;;;;;;18.09;57.63;102216.25;5026211;28;20026;-78
2022/09/01 07:00:38;;;;;;;0.20;0.20;;;;;;;18.21;57.55;102214.13;5033053;28;20029;-78
2022/09/01 07:03:08;;;;;;;0.10;0.10;;;;;;;18.27;57.17;102219.31;5032284;28;20033;-78
2022/09/01 07:05:43;;;;;;;0.10;0.10;;;;;;;18.35;56.86;102214.56;5033131;28;20044;-77
2022/09/01 07:08:16;;;;;;;0.05;0.05;;;;;;;18.44;56.63;102216.09;5024264;28;20029;-78
2022/09/01 07:10:45;;;;;;;0.00;0.00;;;;;;;18.51;56.45;102222.16;5030612;28;20098;-76
2022/09/01 07:13:21;;;;;;;0.10;0.10;;;;;;;18.60;56.40;102224.53;5029684;28;20622;-78
2022/09/01 07:15:50;;;;;;;0.00;0.00;;;;;;;18.64;55.46;102226.22;5024519;28;20044;-77
2022/09/01 07:18:20;;;;;;;0.10;0.10;;;;;;;18.76;55.51;102223.09;5022424;28;20022;-77
2022/09/01 07:20:47;;;;;;;0.10;0.10;;;;;;;18.83;54.96;102228.28;5021119;28;20039;-78
2022/09/01 07:23:15;;;;;;;0.32;0.32;;;;;;;18.90;55.24;102219.09;5023278;28;20065;-77
2022/09/01 07:25:43;;;;;;;0.10;0.10;;;;;;;18.98;54.91;102216.19;5019761;28;20037;-77
2022/09/01 07:28:12;;;;;;;0.10;0.10;;;;;;;19.04;54.86;102227.63;5019120;28;20121;-78
2022/09/01 07:30:44;;;;;;;0.10;0.10;;;;;;;19.14;54.74;102220.13;5014254;28;20022;-77
2022/09/01 07:33:11;;;;;;;0.10;0.10;;;;;;;19.21;54.46;102223.47;5018846;28;20033;-77
2022/09/01 07:35:39;;;;;;;0.63;0.63;;;;;;;19.24;53.47;102228.75;5018422;28;20458;-78
2022/09/01 07:38:07;;;;;;;0.00;0.00;;;;;;;19.30;54.20;102222.28;5016638;28;20025;-78
2022/09/01 07:40:36;;;;;;;0.10;0.10;;;;;;;19.38;53.34;102217.53;5014959;28;20034;-76
2022/09/01 07:43:07;;;;;;;0.03;0.03;;;;;;;19.51;53.78;102226.03;5000146;28;20116;-77
2022/09/01 07:45:36;;;;;;;0.10;0.10;;;;;;;19.58;53.44;102227.56;5017291;28;20056;-76
2022/09/01 07:48:05;;;;;;;0.10;0.10;;;;;;;19.72;53.23;102224.38;5024116;28;20117;-77
2022/09/01 07:50:34;;;;;;;0.50;0.50;;;;;;;19.83;53.48;102221.31;5018480;28;20018;-76
2022/09/01 07:53:01;;;;;;;0.15;0.15;;;;;;;19.93;53.11;102221.88;5025177;28;20049;-77
2022/09/01 07:55:27;;;;;;;0.10;0.10;;;;;;;20.06;52.97;102222.25;5022206;28;20053;-77
2022/09/01 07:57:53;;;;;;;0.10;0.10;;;;;;;20.17;52.89;102222.72;5028109;28;20104;-77
2022/09/01 08:00:20;;;;;;;0.10;0.10;;;;;;;20.29;52.58;102224.94;5021694;28;20142;-77
2022/09/01 08:02:49;;;;;;;0.10;0.10;;;;;;;20.41;52.21;102217.31;5018419;28;20029;-78
2022/09/01 08:05:21;;;;;;;0.40;0.40;;;;;;;20.51;51.78;102224.09;5019344;28;20087;-78
2022/09/01 08:07:48;;;;;;;;;;;;;;;20.75;51.31;102226.75;5025356;28;20121;-78
2022/09/01 08:10:15;;;;;;;0.10;0.10;;;;;;;20.73;51.36;102223.28;5018771;28;19909;-77
2022/09/01 08:12:41;;;;;;;0.10;0.10;;;;;;;20.82;51.36;102222.88;5025959;28;20116;-77
2022/09/01 08:15:10;;;;;;;0.10;0.10;;;;;;;20.94;51.05;102226.91;5030055;28;20033;-76
2022/09/01 08:17:38;;;;;;;0.03;0.03;;;;;;;21.05;51.22;102229.13;5021055;28;20021;-77
2022/09/01 08:20:08;;;;;;;0.73;0.73;;;;;;;21.14;51.03;102226.03;5022813;28;20120;-77
2022/09/01 08:22:36;;;;;;;0.20;0.20;;;;;;;21.23;50.05;102222.94;5021761;28;20076;-77
2022/09/01 08:25:04;;;;;;;0.00;0.00;;;;;;;21.34;50.37;102226.03;5028231;28;20097;-76
2022/09/01 08:27:33;;;;;;;0.10;0.10;;;;;;;21.46;50.66;102223.78;5029263;28;20116;-76
2022/09/01 08:29:59;;;;;;;0.10;0.10;;;;;;;21.58;50.55;102228.66;5031894;28;20037;-77
2022/09/01 08:32:26;;;;;;;0.10;0.10;;;;;;;21.68;50.63;102215.63;5032447;28;20499;-77
2022/09/01 08:34:52;;;;;;;0.10;0.10;;;;;;;21.78;49.71;102218.78;5032820;28;20029;-76
2022/09/01 08:37:19;;;;;;;0.10;0.10;;;;;;;21.90;49.61;102214.66;5033606;28;20053;-77
2022/09/01 08:39:45;;;;;;;0.20;0.20;;;;;;;21.95;49.96;102210.78;5032891;28;20033;-78
2022/09/01 08:42:51;;;;;;;0.10;0.10;;;;;;;22.20;49.44;102209.63;5031960;28;20040;-77
2022/09/01 08:45:33;;;;;;;0.10;0.10;;;;;;;22.36;48.93;102214.31;5022764;28;20033;-77
2022/09/01 08:48:11;;;;;;;0.10;0.10;;;;;;;22.42;49.25;102214.06;5027133;28;20053;-77
2022/09/01 08:50:39;;;;;;;0.10;0.10;;;;;;;22.52;48.69;102215.34;5031719;28;20115;-78
2022/09/01 08:53:18;;;;;;;0.10;0.10;;;;;;;22.67;48.58;102213.72;5032685;28;20534;-78
2022/09/01 08:55:48;;;;;;;0.10;0.10;;;;;;;22.75;48.28;102211.53;5033247;28;20044;-76
2022/09/01 08:58:16;;;;;;;0.10;0.10;;;;;;;22.85;47.84;102206.50;5031890;28;20039;-77
2022/09/01 09:00:47;;;;;;;0.10;0.10;;;;;;;22.98;48.17;102205.88;5030169;28;20038;-77
2022/09/01 09:06:27;;;;;;;0.05;0.05;;;;;;;23.28;46.48;102200.78;5102400;27;20901;-76
2022/09/01 09:08:58;;;;;;;0.43;0.43;;;;;;;23.39;46.83;102205.59;5083172;28;20494;-77
2022/09/01 09:11:54;;;;;;;0.10;0.10;;;;;;;23.50;46.47;102203.22;5088507;28;20032;-78
2022/09/01 09:14:43;;;;;;;0.10;0.10;;;;;;;23.69;46.54;102202.22;5079492;28;20044;-77
2022/09/01 09:17:12;;;;;;;0.20;0.20;;;;;;;23.73;44.52;102198.41;5092352;28;20028;-77
2022/09/01 09:19:43;;;;;;;0.10;0.10;;;;;;;23.82;45.68;102203.28;5092839;28;20059;-77
2022/09/01 09:22:12;;;;;;;0.00;0.00;;;;;;;23.93;44.67;102188.34;5094000;28;20037;-77
2022/09/01 09:38:31;;;;;;;0.00;0.00;;;;;;;24.60;42.50;102182.75;5086153;28;20351;-77
2022/09/01 09:43:43;;;;;;;0.00;0.00;;;;;;;24.74;43.92;102163.88;5143852;27;20876;-76
2022/09/01 09:49:14;;;;;;;0.10;0.10;;;;;;;24.93;42.63;102166.34;5098884;27;20394;-79
2022/09/01 09:51:44;;;;;;;0.05;0.05;;;;;;;25.06;42.72;102165.63;5059012;28;20045;-77
2022/09/01 09:54:14;;;;;;;0.10;0.10;;;;;;;25.15;42.27;102157.81;5064556;28;20166;-77
2022/09/01 09:56:43;;;;;;;0.10;0.10;;;;;;;25.23;42.05;102156.47;5049853;28;20385;-77
2022/09/01 09:59:31;;;;;;;0.20;0.20;;;;;;;25.45;41.98;102156.91;5048649;28;20033;-77
2022/09/01 10:02:13;;;;;;;0.20;0.20;;;;;;;25.47;40.33;102148.66;5049404;28;20116;-77
2022/09/01 10:04:40;;;;;;;0.40;0.40;;;;;;;25.56;41.31;102149.91;5047932;28;20029;-77
2022/09/01 10:07:29;;;;;;;0.10;0.10;;;;;;;25.77;41.36;102148.56;5055626;28;20388;-76
2022/09/01 10:09:59;;;;;;;0.10;0.10;;;;;;;25.77;41.31;102150.41;5047286;28;20103;-77
2022/09/01 10:12:28;;;;;;;0.10;0.10;;;;;;;25.81;40.56;102144.69;5048079;28;20033;-78
2022/09/01 10:15:06;;;;;;;0.10;0.10;;;;;;;25.76;37.32;102140.53;5047908;28;20108;-77
2022/09/01 10:17:41;;;;;;;0.10;0.10;;;;;;;25.92;38.37;102144.00;5052333;28;20454;-77
2022/09/01 10:22:46;;;;;;;0.10;0.10;;;;;;;26.09;39.84;102140.19;5097936;27;20118;-76
2022/09/01 10:25:19;;;;;;;0.10;0.10;;;;;;;26.22;38.12;102136.69;5088274;28;20028;-77
2022/09/01 10:27:50;;;;;;;0.10;0.10;;;;;;;26.36;39.14;102142.06;5084281;28;20032;-77
2022/09/01 10:30:19;;;;;;;0.30;0.30;;;;;;;26.46;39.26;102139.63;5085244;28;20640;-77
2022/09/01 10:33:00;;;;;;;0.10;0.10;;;;;;;26.52;38.30;102138.31;5086005;28;20407;-76
2022/09/01 10:35:31;;;;;;;0.10;0.10;;;;;;;26.53;38.13;102140.06;5084955;28;20040;-76
2022/09/01 10:38:00;;;;;;;0.10;0.10;;;;;;;26.50;37.10;102129.41;5085690;28;20804;-76
2022/09/01 10:46:08;;;;;;;0.10;0.10;;;;;;;26.75;36.25;102128.63;5097191;27;20118;-76
2022/09/01 10:48:37;;;;;;;0.20;0.20;;;;;;;26.77;37.85;102127.56;5087735;28;20035;-76
2022/09/01 10:53:57;;;;;;;0.10;0.10;;;;;;;26.99;35.79;102126.06;5056639;28;20757;-76
2022/09/01 10:56:44;;;;;;;0.35;0.35;;;;;;;27.08;37.13;102130.88;5046776;28;20033;-76
2022/09/01 10:59:28;;;;;;;0.10;0.10;;;;;;;27.20;34.70;102125.53;5045655;28;20064;-76
2022/09/01 11:15:37;;;;;;;0.10;0.10;;;;;;;27.51;34.89;102126.13;5113722;27;20420;-76
2022/09/01 11:18:15;;;;;;;0.10;0.10;;;;;;;27.56;35.57;102113.03;5079668;28;20109;-77
2022/09/01 11:20:43;;;;;;;0.10;0.10;;;;;;;27.52;34.17;102116.97;5075452;28;20111;-76
2022/09/01 11:26:41;;;;;;;0.05;0.05;;;;;;;27.74;34.42;102116.28;5048567;28;20365;-77
2022/09/01 11:29:07;;;;;;;0.30;0.30;;;;;;;27.76;34.07;102115.19;5047460;28;20041;-77
2022/09/01 11:31:42;;;;;;;0.08;0.08;;;;;;;27.86;32.65;102109.91;5045621;28;20037;-77
2022/09/01 11:34:22;;;;;;;7.13;0.52;;;;;;;27.87;32.57;102111.66;5046701;28;20501;-78
2022/09/01 11:39:35;;;;;;;0.10;0.10;;;;;;;27.95;30.69;102102.91;5108019;27;20136;-77
2022/09/01 11:42:42;;;;;;;0.17;0.17;;;;;;;27.98;30.55;102102.69;5103760;28;20034;-77
2022/09/01 11:45:18;;;;;;;0.10;0.10;;;;;;;27.99;32.60;102093.53;5072958;28;20025;-77
2022/09/01 11:47:49;;;;;;;0.10;0.10;;;;;;;28.03;31.98;102100.50;5074498;28;20016;-77
2022/09/01 11:52:58;;;;;;;0.00;0.00;;;;;;;28.08;30.51;102092.88;5108174;27;20415;-76
2022/09/01 11:55:47;;;;;;;0.57;0.57;;;;;;;28.14;31.16;102086.09;5109853;28;20028;-75
2022/09/01 12:01:39;;;;;;;0.10;0.10;;;;;;;28.48;32.00;102082.66;5090464;27;20929;-77
2022/09/01 12:07:03;;;;;;;0.10;0.10;;;;;;;28.50;30.47;102078.84;5073245;27;20396;-76
2022/09/01 12:09:36;;;;;;;0.00;0.00;;;;;;;28.55;28.58;102079.34;5086639;28;20036;-76
2022/09/01 12:12:04;;;;;;;0.10;0.10;;;;;;;28.50;29.47;102064.31;5055311;28;20453;-76
2022/09/01 12:14:30;;;;;;;0.20;0.20;;;;;;;28.58;31.15;102076.38;5070690;28;20031;-77
2022/09/01 12:17:03;;;;;;;0.98;0.90;;;;;;;28.67;30.55;102066.63;5072195;28;20024;-80
2022/09/01 12:19:33;;;;;;;0.10;0.10;;;;;;;28.70;30.35;102071.00;5076850;28;20035;-75
2022/09/01 12:22:15;;;;;;;0.10;0.10;;;;;;;28.89;30.70;102070.41;5074667;28;20037;-77
2022/09/01 12:24:44;;;;;;;;;;;;;;;28.85;28.98;102069.78;5073999;28;20099;-77
2022/09/01 12:27:10;;;;;;;0.00;0.00;;;;;;;28.88;28.75;102068.69;5064874;28;19916;-78
2022/09/01 12:29:37;;;;;;;0.10;0.10;;;;;;;28.91;29.57;102062.09;5058841;28;20031;-78
2022/09/01 12:32:04;;;;;;;0.10;0.10;;;;;;;28.91;31.02;102062.97;5063815;28;20064;-78
2022/09/01 12:37:23;;;;;;;0.40;0.40;;;;;;;29.18;29.51;102059.03;5074855;27;20357;-77
2022/09/01 12:39:53;;;;;;;0.10;0.10;;;;;;;29.12;28.23;102054.06;5068217;28;20029;-77
2022/09/01 12:45:01;;;;;;;0.10;0.10;;;;;;;29.23;29.63;102051.34;5108996;27;20397;-78
2022/09/01 12:52:53;;;;;;;0.10;0.10;;;;;;;29.17;28.69;102047.25;5109076;27;20427;-78
2022/09/01 12:55:23;;;;;;;0.85;0.65;;;;;;;29.18;28.98;102045.38;5088635;28;20126;-78
2022/09/01 12:57:54;;;;;;;0.10;0.10;;;;;;;29.28;29.18;102049.09;5081944;28;20028;-78
2022/09/01 13:03:38;;;;;;;0.10;0.10;;;;;;;29.49;28.46;102037.47;5105903;27;20343;-78
2022/09/01 13:06:04;;;;;;;0.10;0.10;;;;;;;29.65;29.44;102039.81;5074082;28;20060;-77
2022/09/01 13:08:33;;;;;;;0.43;0.43;;;;;;;29.76;27.64;102038.91;5069998;28;20028;-78
2022/09/01 13:11:12;;;;;;;0.10;0.10;;;;;;;29.81;26.24;102039.41;5070408;28;20433;-79
2022/09/01 13:13:39;;;;;;;0.10;0.10;;;;;;;29.75;26.98;102029.00;5078098;28;20048;-78